Terminal Aerodrome Forecast
Issued by NWS Detroit/Pontiac, MI

Home | Current Version | Previous Version | Text Only | Print | Product List | Glossary On
Versions: 1 2 3 4 5 6 7 8 9 10 11 12 13 14 15 16 17 18 19 20 21 22 23 24 25 26 27 28
000
FTUS43 KDTX 271253 AAA
TAFDTW
TAF AMD
KDTW 271253Z 2713/2818 18011KT 5SM -SHRA SCT015 OVC025
     FM271700 20012KT 6SM BR BKN015 OVC025
     FM272200 20012G20KT 6SM -SHRA BKN015 OVC025
     FM280500 27011KT P6SM BKN020
     FM281400 29008KT P6SM SCT020 BKN200=

USA.gov is the U.S. government's official web portal to all federal, state and local government web resources and services.